Time;durP1;ratioP1;P1;durP2;ratioP2;P2;SDS_P1;SDS_P2;PMS_P1;PMS_P2;Temp;Humidity;BMP_temperature;BMP_pressure;BME280_temperature;BME280_humidity;BME280_pressure;Samples;Min_cycle;Max_cycle;Signal;HPM_P1;HPM_P2
2023/04/01 09:22:00;;;;;;;0.80;0.63;;;;;;;;;;5087787;28;20697;-67
2023/04/01 09:24:37;;;;;;;0.70;0.40;;;;;;;;;;5088547;28;20444;-66
2023/04/01 09:27:05;;;;;;;0.70;0.40;;;;;;;;;;5088529;28;20957;-66
2023/04/01 09:29:39;;;;;;;0.70;0.40;;;;;;;;;;5088241;28;20455;-67
2023/04/01 09:32:17;;;;;;;0.70;0.50;;;;;;;;;;5088445;28;20432;-66
2023/04/01 09:34:54;;;;;;;0.70;0.40;;;;;;;;;;5087717;28;20439;-66
2023/04/01 09:37:31;;;;;;;0.70;0.40;;;;;;;;;;5087963;28;20440;-66
2023/04/01 09:40:10;;;;;;;0.70;0.40;;;;;;;;;;5087328;28;20472;-67
2023/04/01 09:42:44;;;;;;;0.70;0.40;;;;;;;;;;5087677;28;20451;-66
2023/04/01 09:45:20;;;;;;;0.70;0.40;;;;;;;;;;5088054;28;20947;-66
2023/04/01 09:47:57;;;;;;;0.70;0.40;;;;;;;;;;5086889;28;20441;-66
2023/04/01 09:50:31;;;;;;;0.70;0.40;;;;;;;;;;5087647;28;20456;-66
2023/04/01 09:53:04;;;;;;;0.60;0.40;;;;;;;;;;5087096;28;20763;-66
2023/04/01 09:55:46;;;;;;;0.60;0.40;;;;;;;;;;5087707;28;20508;-66
2023/04/01 09:58:26;;;;;;;0.60;0.40;;;;;;;;;;5074761;28;20452;-66
2023/04/01 10:01:02;;;;;;;0.70;0.50;;;;;;;;;;5087301;28;20483;-66
2023/04/01 10:03:38;;;;;;;0.60;0.40;;;;;;;;;;5087939;28;20459;-66
2023/04/01 10:06:20;;;;;;;0.70;0.40;;;;;;;;;;5087244;28;20448;-64
2023/04/01 10:09:02;;;;;;;0.60;0.40;;;;;;;;;;5082345;28;20449;-67
2023/04/01 10:11:42;;;;;;;0.60;0.40;;;;;;;;;;5087989;28;20444;-67
2023/04/01 10:14:20;;;;;;;0.60;0.40;;;;;;;;;;5087734;28;20444;-66
2023/04/01 10:17:02;;;;;;;0.60;0.40;;;;;;;;;;5086921;28;20527;-67
2023/04/01 10:19:47;;;;;;;0.70;0.40;;;;;;;;;;5087853;28;20441;-66
2023/04/01 10:22:26;;;;;;;0.70;0.60;;;;;;;;;;5107947;28;20447;-67
2023/04/01 10:25:14;;;;;;;0.60;0.40;;;;;;;;;;5107209;28;20447;-67
2023/04/01 10:27:57;;;;;;;0.60;0.40;;;;;;;;;;5072717;28;20960;-66
2023/04/01 10:30:39;;;;;;;0.60;0.40;;;;;;;;;;5107350;28;20444;-67
2023/04/01 10:33:20;;;;;;;0.70;0.40;;;;;;;;;;5076994;28;20486;-66
2023/04/01 10:36:00;;;;;;;0.60;0.40;;;;;;;;;;5093282;28;20440;-67
2023/04/01 10:38:50;;;;;;;0.60;0.40;;;;;;;;;;5093608;28;20450;-67
2023/04/01 10:41:38;;;;;;;0.60;0.40;;;;;;;;;;5093184;28;20962;-66
2023/04/01 10:44:16;;;;;;;0.60;0.40;;;;;;;;;;5093261;28;20445;-65
2023/04/01 10:47:04;;;;;;;0.60;0.40;;;;;;;;;;5091753;28;20468;-67
2023/04/01 10:49:48;;;;;;;0.60;0.40;;;;;;;;;;5083836;28;20525;-68
2023/04/01 10:52:33;;;;;;;0.60;0.40;;;;;;;;;;5091665;28;20806;-67
2023/04/01 10:55:15;;;;;;;0.60;0.43;;;;;;;;;;5093320;28;20444;-67
2023/04/01 10:57:57;;;;;;;0.60;0.40;;;;;;;;;;5090596;28;20452;-66
2023/04/01 11:00:48;;;;;;;0.60;0.40;;;;;;;;;;5092542;28;20494;-67
2023/04/01 11:03:34;;;;;;;0.70;0.50;;;;;;;;;;5067205;28;20951;-67
2023/04/01 11:06:21;;;;;;;0.60;0.50;;;;;;;;;;5092484;28;20494;-67
2023/04/01 11:09:07;;;;;;;0.60;0.40;;;;;;;;;;5089460;28;20474;-65
2023/04/01 11:11:48;;;;;;;0.60;0.40;;;;;;;;;;5089853;28;20460;-67
2023/04/01 11:14:26;;;;;;;0.60;0.40;;;;;;;;;;5091661;28;20535;-66
2023/04/01 11:17:11;;;;;;;0.60;0.40;;;;;;;;;;5090539;28;20441;-67
2023/04/01 11:19:52;;;;;;;0.60;0.40;;;;;;;;;;5091162;28;20480;-67
2023/04/01 11:22:38;;;;;;;0.60;0.40;;;;;;;;;;5091185;28;20942;-66
2023/04/01 11:25:26;;;;;;;0.60;0.40;;;;;;;;;;5080964;28;20448;-67
2023/04/01 11:28:00;;;;;;;0.60;0.40;;;;;;;;;;5091498;28;20440;-67
2023/04/01 11:30:31;;;;;;;0.60;0.40;;;;;;;;;;5092533;28;20444;-63
2023/04/01 11:33:02;;;;;;;0.60;0.40;;;;;;;;;;5090766;28;20441;-68
2023/04/01 11:35:34;;;;;;;0.60;0.40;;;;;;;;;;5084341;28;20523;-66
2023/04/01 11:38:07;;;;;;;0.60;0.40;;;;;;;;;;5092193;28;20811;-67
2023/04/01 11:40:39;;;;;;;0.60;0.40;;;;;;;;;;5091446;28;20472;-65
2023/04/01 11:43:10;;;;;;;0.60;0.40;;;;;;;;;;5090976;28;20449;-69
2023/04/01 11:45:40;;;;;;;0.60;0.40;;;;;;;;;;5091762;28;20440;-69
2023/04/01 11:48:39;;;;;;;0.60;0.40;;;11.40;99.90;;;;;;5091995;28;20809;-68
2023/04/01 11:51:18;;;;;;;0.60;0.40;;;;;;;;;;5069936;28;20526;-68
2023/04/01 11:53:49;;;;;;;0.60;0.40;;;;;;;;;;5091961;28;20448;-65
2023/04/01 11:56:31;;;;;;;0.60;0.40;;;;;;;;;;5091865;28;20448;-64
2023/04/01 11:59:04;;;;;;;0.60;0.40;;;;;;;;;;5076720;28;20448;-66
2023/04/01 12:01:41;;;;;;;0.60;0.40;;;11.90;99.90;;;;;;5091451;28;20496;-68
2023/04/01 12:04:23;;;;;;;0.60;0.40;;;;;;;;;;5090438;28;21009;-67
2023/04/01 12:06:53;;;;;;;0.60;0.50;;;;;;;;;;5088420;28;20816;-68
2023/04/01 12:09:24;;;;;;;0.70;0.70;;;;;;;;;;5090147;28;20520;-67
2023/04/01 12:11:55;;;;;;;0.60;0.40;;;;;;;;;;5089663;28;20945;-66
2023/04/01 12:14:26;;;;;;;0.60;0.50;;;;;;;;;;5091805;28;20444;-65
2023/04/01 12:16:58;;;;;;;0.60;0.40;;;;;;;;;;5091662;28;20444;-65
2023/04/01 12:19:30;;;;;;;0.60;0.40;;;;;;;;;;5089677;28;20931;-64
2023/04/01 12:22:05;;;;;;;0.60;0.40;;;;;;;;;;5091415;28;20478;-63
2023/04/01 12:24:47;;;;;;;0.60;0.40;;;;;;;;;;5091753;28;20444;-63
2023/04/01 12:27:25;;;;;;;0.60;0.40;;;;;;;;;;5091264;28;20441;-66
2023/04/01 12:30:10;;;;;;;0.60;0.40;;;;;;;;;;5085376;28;20466;-65
2023/04/01 12:32:42;;;;;;;0.60;0.40;;;;;;;;;;5090788;28;20441;-64
2023/04/01 12:35:23;;;;;;;0.60;0.40;;;;;;;;;;5088531;28;20455;-62
2023/04/01 12:37:53;;;;;;;0.60;0.40;;;;;;;;;;5087829;28;20437;-63
2023/04/01 12:40:40;;;;;;;0.60;0.40;;;;;;;;;;5089345;28;20455;-63
2023/04/01 12:43:14;;;;;;;0.60;0.40;;;;;;;;;;5089473;28;20506;-63
2023/04/01 12:45:46;;;;;;;0.60;0.40;;;;;;;;;;5089170;28;20527;-63
2023/04/01 12:48:32;;;;;;;0.60;0.40;;;;;;;;;;5085994;28;20472;-63
2023/04/01 12:51:20;;;;;;;0.60;0.40;;;;;;;;;;5090251;28;20826;-63
2023/04/01 12:54:00;;;;;;;0.60;0.40;;;;;;;;;;5087451;28;20449;-63
2023/04/01 12:56:34;;;;;;;0.60;0.40;;;;;;;;;;5089841;28;20954;-63
2023/04/01 12:59:22;;;;;;;0.60;0.40;;;;;;;;;;5088264;28;20467;-63
2023/04/01 13:01:54;;;;;;;0.60;0.40;;;;;;;;;;5086880;28;20534;-63
2023/04/01 13:04:35;;;;;;;0.60;0.40;;;;;;;;;;5087070;28;20444;-67
2023/04/01 13:07:17;;;;;;;0.60;0.40;;;;;;;;;;5090649;28;20472;-63
2023/04/01 13:09:47;;;;;;;0.60;0.40;;;;;;;;;;5086062;28;20452;-65
2023/04/01 13:12:24;;;;;;;0.60;0.40;;;;;;;;;;5090515;28;20953;-65
2023/04/01 13:15:01;;;;;;;0.60;0.40;;;;;;;;;;5090029;28;20531;-65
2023/04/01 13:17:31;;;;;;;0.60;0.40;;;;;;;;;;5082849;28;20445;-66
2023/04/01 13:20:03;;;;;;;0.60;0.40;;;;;;;;;;5089016;28;20510;-65
2023/04/01 13:22:37;;;;;;;0.60;0.40;;;;;;;;;;5090427;28;20475;-65
2023/04/01 13:25:06;;;;;;;0.60;0.40;;;;;;;;;;5091042;28;20526;-62
2023/04/01 13:27:37;;;;;;;0.60;0.40;;;;;;;;;;5088926;28;20496;-65
2023/04/01 13:30:13;;;;;;;0.60;0.40;;;;;;;;;;5090487;28;20448;-64
2023/04/01 13:32:45;;;;;;;0.60;0.40;;;;;;;;;;5090091;28;20460;-64
2023/04/01 13:35:17;;;;;;;0.60;0.40;;;;;;;;;;5090710;28;20471;-64
2023/04/01 13:37:50;;;;;;;0.60;0.40;;;;;;;;;;5088841;28;20524;-65
2023/04/01 13:40:37;;;;;;;0.60;0.40;;;;;;;;;;5090249;28;20448;-64
2023/04/01 13:43:06;;;;;;;0.60;0.40;;;;;;;;;;5090323;28;20522;-64
2023/04/01 13:45:38;;;;;;;0.60;0.40;;;;;;;;;;5089474;28;20452;-63
2023/04/01 13:48:28;;;;;;;0.60;0.40;;;;;;;;;;5089666;28;20445;-64
2023/04/01 13:51:10;;;;;;;0.60;0.40;;;;;;;;;;5084307;28;20979;-64
2023/04/01 13:53:48;;;;;;;0.60;0.40;;;;;;;;;;5089690;28;20987;-63
2023/04/01 13:56:18;;;;;;;0.60;0.40;;;;;;;;;;5089624;28;20822;-65
2023/04/01 13:58:57;;;;;;;0.60;0.40;;;;;;;;;;5087998;28;20445;-65
2023/04/01 14:01:28;;;;;;;0.60;0.40;;;;;;;;;;5090162;28;20468;-64
2023/04/01 14:04:11;;;;;;;0.60;0.40;;;;;;;;;;5089780;28;20745;-67
2023/04/01 14:06:42;;;;;;;0.60;0.40;;;;;;;;;;5061121;28;20456;-63
2023/04/01 14:09:27;;;;;;;0.60;0.40;;;;;;;;;;5093618;28;20432;-65
2023/04/01 14:11:58;;;;;;;0.60;0.40;;;;;;;;;;5091783;28;20750;-64
2023/04/01 14:14:34;;;;;;;0.60;0.40;;;;;;;;;;5093484;28;20447;-65
2023/04/01 14:17:20;;;;;;;0.60;0.40;;;;;;;;;;5082370;28;20801;-65
2023/04/01 14:19:57;;;;;;;0.60;0.40;;;;;;;;;;5091861;28;20484;-67
2023/04/01 14:22:28;;;;;;;0.60;0.40;;;;;;;;;;5094080;28;20479;-66
2023/04/01 14:25:14;;;;;;;0.60;0.40;;;;;;;;;;5093226;28;20448;-65
2023/04/01 14:27:45;;;;;;;0.60;0.40;;;;;;;;;;5093015;28;20441;-65
2023/04/01 14:30:29;;;;;;;0.60;0.40;;;;;;;;;;5089683;28;20456;-68
2023/04/01 14:33:00;;;;;;;0.60;0.40;;;;;;;;;;5092895;28;20448;-67
2023/04/01 14:35:33;;;;;;;0.60;0.40;;;;;;;;;;5081113;28;20441;-66
2023/04/01 14:38:06;;;;;;;0.60;0.40;;;;;;;;;;5093667;28;20527;-67
2023/04/01 14:40:45;;;;;;;0.60;0.40;;;;;;;;;;5089110;28;20445;-67
2023/04/01 14:43:22;;;;;;;0.60;0.40;;;;;;;;;;5093696;28;20483;-66
2023/04/01 14:46:00;;;;;;;0.60;0.40;;;;;;;;;;5091734;28;20440;-66
2023/04/01 14:48:30;;;;;;;0.60;0.40;;;;;;;;;;5092624;28;20439;-65
2023/04/01 14:51:03;;;;;;;0.60;0.40;;;;;;;;;;5091125;28;20934;-66
2023/04/01 14:53:33;;;;;;;0.60;0.40;;;;;;;;;;5093493;28;20453;-70
2023/04/01 14:56:02;;;;;;;0.60;0.40;;;;;;;;;;5092774;28;20876;-66
2023/04/01 14:58:41;;;;;;;0.60;0.40;;;;;;;;;;5092422;28;20449;-67
2023/04/01 15:01:14;;;;;;;0.60;0.40;;;;;;;;;;5092986;28;20441;-66
2023/04/01 15:03:47;;;;;;;0.60;0.40;;;;;;;;;;5090673;28;20443;-66
2023/04/01 15:06:26;;;;;;;0.60;0.40;;;;;;;;;;5092580;28;20498;-65
2023/04/01 15:08:58;;;;;;;0.60;0.40;;;;;;;;;;5092130;28;20440;-66
2023/04/01 15:11:30;;;;;;;0.60;0.40;;;;;;;;;;5093272;28;20448;-68
2023/04/01 15:14:06;;;;;;;0.60;0.40;;;;;;;;;;5091068;28;20453;-67
2023/04/01 15:16:41;;;;;;;0.60;0.40;;;;;;;;;;5092555;28;20455;-66
2023/04/01 15:19:14;;;;;;;0.60;0.40;;;;;;;;;;5091243;28;20558;-65
2023/04/01 15:21:50;;;;;;;0.60;0.40;;;;;;;;;;5090923;28;20495;-65
2023/04/01 15:24:20;;;;;;;0.60;0.40;;;;;;;;;;5092850;28;20448;-65
2023/04/01 15:27:03;;;;;;;0.60;0.40;;;;;;;;;;5092370;28;20445;-66
2023/04/01 15:29:48;;;;;;;0.60;0.40;;;;;;;;;;5092565;28;20840;-66
2023/04/01 15:32:21;;;;;;;0.60;0.40;;;;;;;;;;5086023;28;20468;-65
2023/04/01 15:34:51;;;;;;;0.60;0.40;;;;;;;;;;5089092;28;20955;-65
2023/04/01 15:37:23;;;;;;;0.60;0.40;;;;;;;;;;5087820;28;20524;-65
2023/04/01 15:39:56;;;;;;;0.60;0.40;;;;;;;;;;5091746;28;20444;-66
2023/04/01 15:42:31;;;;;;;0.60;0.40;;;;;;;;;;5092246;28;20464;-67
2023/04/01 15:45:08;;;;;;;0.60;0.47;;;;;;;;;;5091088;28;20904;-68
2023/04/01 15:47:38;;;;;;;0.60;0.40;;;;;;;;;;5091904;28;20452;-64
2023/04/01 15:50:36;;;;;;;0.60;0.40;;;;;;;;;;5091337;28;20817;-65
2023/04/01 15:53:09;;;;;;;0.60;0.40;;;;;;;;;;5090827;28;20440;-65
2023/04/01 15:55:40;;;;;;;0.60;0.40;;;;;;;;;;5091376;28;20448;-64
2023/04/01 15:58:23;;;;;;;0.60;0.40;;;;;;;;;;5091583;28;20467;-66
2023/04/01 16:00:55;;;;;;;0.60;0.40;;;;;;;;;;5088463;28;20448;-65
2023/04/01 16:03:32;;;;;;;0.60;0.40;;;;;;;;;;5091435;28;20472;-67
2023/04/01 16:06:11;;;;;;;0.60;0.40;;;;;;;;;;5089609;28;20444;-64
2023/04/01 16:08:47;;;;;;;0.60;0.40;;;;;;;;;;5090053;28;20447;-63
2023/04/01 16:11:18;;;;;;;0.60;0.40;;;;;;;;;;5090114;28;20444;-64
2023/04/01 16:13:50;;;;;;;0.60;0.40;;;;;;;;;;5090315;28;20441;-64
2023/04/01 16:16:25;;;;;;;0.60;0.40;;;;;;;;;;5088694;28;20444;-64
2023/04/01 16:19:00;;;;;;;0.60;0.40;;;;;;;;;;5090871;28;20534;-64
2023/04/01 16:21:36;;;;;;;0.60;0.40;;;;;;;;;;5091168;28;20487;-64
2023/04/01 16:24:07;;;;;;;0.60;0.40;;;;;;;;;;5091842;28;20494;-64
2023/04/01 16:26:38;;;;;;;0.70;0.60;;;;;;;;;;5092136;28;20441;-64
2023/04/01 16:29:10;;;;;;;0.60;0.40;;;;;;;;;;5091039;28;20449;-64
2023/04/01 16:31:39;;;;;;;0.60;0.40;;;;;;;;;;5091430;28;20440;-64
2023/04/01 16:34:11;;;;;;;0.60;0.40;;;;;;;;;;5091736;28;20448;-64
2023/04/01 16:36:41;;;;;;;0.60;0.40;;;;;;;;;;5091246;28;20432;-63
2023/04/01 16:39:16;;;;;;;0.60;0.40;;;;;;;;;;5091648;28;20459;-64
2023/04/01 16:41:48;;;;;;;0.60;0.40;;;;;;;;;;5091197;28;20788;-65
2023/04/01 16:44:21;;;;;;;0.60;0.40;;;;;;;;;;5091148;28;20453;-62
2023/04/01 16:46:51;;;;;;;0.60;0.40;;;;;;;;;;5089989;28;20946;-65
2023/04/01 16:49:25;;;;;;;0.60;0.50;;;;;;;;;;5091045;28;20448;-63
2023/04/01 16:51:55;;;;;;;0.60;0.40;;;;;;;;;;5090429;28;20455;-63
2023/04/01 16:54:29;;;;;;;0.60;0.40;;;;;;;;;;5091350;28;20458;-64
2023/04/01 16:56:57;;;;;;;0.60;0.40;;;;;;;;;;5090204;28;20459;-64
2023/04/01 16:59:27;;;;;;;0.60;0.40;;;;;;;;;;5091421;28;20445;-64
2023/04/01 17:01:55;;;;;;;0.60;0.40;;;;;;;;;;5090843;28;20836;-64
2023/04/01 17:04:29;;;;;;;0.60;0.40;;;;;;;;;;5091048;28;20452;-64
2023/04/01 17:06:59;;;;;;;0.90;0.60;;;;;;;;;;5089901;28;20918;-64
2023/04/01 17:09:32;;;;;;;0.60;0.43;;;;;;;;;;5091244;28;20451;-64
2023/04/01 17:12:05;;;;;;;0.60;0.40;;;;;;;;;;5091118;28;20448;-65
2023/04/01 17:14:37;;;;;;;0.60;0.40;;;;;;;;;;5091284;28;20445;-64
2023/04/01 17:17:13;;;;;;;0.60;0.40;;;;;;;;;;5090744;28;20436;-64
2023/04/01 17:19:47;;;;;;;0.60;0.40;;;;;;;;;;5090031;28;20966;-64
2023/04/01 17:22:22;;;;;;;0.60;0.40;;;;;;;;;;5090743;28;20978;-64
2023/04/01 17:24:57;;;;;;;0.60;0.40;;;;;;;;;;5090489;28;20448;-64
2023/04/01 17:27:30;;;;;;;0.60;0.40;;;;;;;;;;5090609;28;20447;-63
2023/04/01 17:30:21;;;;;;;0.60;0.40;;;;;;;;;;5090495;28;20453;-64
2023/04/01 17:32:56;;;;;;;0.70;0.60;;;;;;;;;;5090177;28;20456;-64
2023/04/01 17:35:28;;;;;;;0.60;0.40;;;;;;;;;;5090615;28;20436;-64
2023/04/01 17:38:01;;;;;;;0.60;0.40;;;;;;;;;;5077143;28;20444;-64
2023/04/01 17:40:32;;;;;;;0.60;0.40;;;;;;;;;;5090668;28;20911;-64
2023/04/01 17:43:02;;;;;;;0.60;0.40;;;;;;;;;;5093722;28;20476;-64
2023/04/01 17:45:32;;;;;;;0.60;0.40;;;;;;;;;;5095169;28;20448;-63
2023/04/01 17:48:04;;;;;;;0.60;0.40;;;;;;;;;;5093873;28;20444;-63
2023/04/01 17:50:44;;;;;;;0.60;0.40;;;;;;;;;;5094550;28;20878;-63
2023/04/01 17:53:20;;;;;;;0.60;0.40;;;;;;;;;;5095080;28;20850;-63
2023/04/01 17:55:54;;;;;;;0.63;0.57;;;;;;;;;;5094124;28;20779;-64
2023/04/01 17:58:22;;;;;;;0.60;0.40;;;;;;;;;;5093941;28;20447;-64
2023/04/01 18:00:55;;;;;;;0.90;0.60;;;;;;;;;;5094314;28;20448;-64
2023/04/01 18:03:33;;;;;;;0.60;0.40;;;;;;;;;;5088216;28;20522;-64
2023/04/01 18:06:07;;;;;;;0.60;0.40;;;;;;;;;;5091889;28;20455;-64
2023/04/01 18:08:50;;;;;;;0.60;0.40;;;;;;;;;;5091555;28;20539;-64
2023/04/01 18:11:20;;;;;;;0.60;0.40;;;;;;;;;;5091566;28;20460;-64
2023/04/01 18:13:54;;;;;;;0.60;0.40;;;;;;;;;;5091551;28;20454;-64
2023/04/01 18:16:40;;;;;;;0.60;0.40;;;;;;;;;;5089096;28;20456;-64
2023/04/01 18:19:11;;;;;;;0.60;0.40;;;;;;;;;;5091816;28;20452;-63
2023/04/01 18:21:44;;;;;;;0.60;0.40;;;;;;;;;;5091458;28;20476;-64
2023/04/01 18:24:17;;;;;;;0.60;0.40;;;;;;;;;;5091125;28;20878;-64
2023/04/01 18:26:47;;;;;;;0.70;0.50;;;;;;;;;;5090764;28;20955;-64
2023/04/01 18:29:19;;;;;;;0.60;0.40;;;;;;;;;;5091333;28;20444;-64
2023/04/01 18:31:47;;;;;;;0.60;0.40;;;;;;;;;;5090846;28;20448;-64
2023/04/01 18:34:17;;;;;;;0.60;0.40;;;;;;;;;;5090964;28;20449;-63
2023/04/01 18:36:51;;;;;;;0.70;0.50;;;;;;;;;;5090600;28;20450;-63
2023/04/01 18:39:22;;;;;;;0.60;0.50;;;;;;;;;;5090702;28;20954;-63
2023/04/01 18:41:54;;;;;;;0.80;0.60;;;;;;;;;;5090745;28;20449;-63
2023/04/01 18:44:38;;;;;;;0.60;0.40;;;;;;;;;;5091002;28;21010;-63
2023/04/01 18:47:13;;;;;;;0.60;0.40;;;;;;;;;;5091150;28;20451;-64
2023/04/01 18:49:43;;;;;;;0.60;0.40;;;;;;;;;;5090641;28;20523;-63
2023/04/01 18:52:16;;;;;;;0.70;0.60;;;;;;;;;;5090185;28;20440;-63
2023/04/01 18:54:45;;;;;;;0.60;0.40;;;;;;;;;;5090429;28;20467;-64
2023/04/01 18:57:14;;;;;;;0.60;0.40;;;;;;;;;;5090417;28;20453;-64
2023/04/01 18:59:43;;;;;;;0.60;0.40;;;;;;;;;;5090328;28;20452;-63
2023/04/01 19:02:18;;;;;;;0.60;0.40;;;;;;;;;;5090244;28;20440;-63
2023/04/01 19:04:50;;;;;;;0.70;0.60;;;;;;;;;;5089974;28;20455;-63
2023/04/01 19:07:45;;;;;;;0.60;0.40;;;;;;;;;;5091103;28;20536;-63
2023/04/01 19:10:18;;;;;;;0.60;0.40;;;;;;;;;;5043162;28;20481;-63
2023/04/01 19:12:51;;;;;;;0.60;0.40;;;;;;;;;;5089696;28;20513;-63
2023/04/01 19:15:25;;;;;;;0.60;0.40;;;;;;;;;;5076276;28;20529;-64
2023/04/01 19:18:00;;;;;;;0.60;0.40;;;;;;;;;;5089965;28;20479;-63
2023/04/01 19:20:29;;;;;;;0.60;0.40;;;;;;;;;;5089730;28;20583;-64
2023/04/01 19:23:10;;;;;;;0.60;0.40;;;;;;;;;;5089247;28;20491;-63
2023/04/01 19:25:41;;;;;;;0.60;0.40;;;;;;;;;;5089872;28;20455;-63
2023/04/01 19:28:21;;;;;;;0.60;0.40;;;;;;;;;;5090492;28;20449;-64
2023/04/01 19:30:52;;;;;;;0.60;0.40;;;;;;;;;;5089577;28;20451;-64
2023/04/01 19:33:26;;;;;;;0.60;0.40;;;;;;;;;;5090115;28;20448;-64
2023/04/01 19:35:58;;;;;;;1.27;0.60;;;;;;;;;;5089173;28;20472;-64
2023/04/01 19:38:28;;;;;;;0.60;0.50;;;;;;;;;;5089809;28;20803;-63
2023/04/01 19:40:58;;;;;;;0.60;0.40;;;;;;;;;;5089465;28;21283;-63
2023/04/01 19:43:31;;;;;;;0.60;0.40;;;;;;;;;;5089587;28;20506;-65
2023/04/01 19:46:02;;;;;;;0.60;0.40;;;;;;;;;;5088964;28;20919;-63
2023/04/01 19:48:41;;;;;;;0.60;0.40;;;;;;;;;;5089661;28;20557;-64
2023/04/01 19:51:10;;;;;;;0.60;0.40;;;;;;;;;;5090102;28;20460;-63
2023/04/01 19:53:40;;;;;;;0.60;0.40;;;;;;;;;;5088630;28;20455;-64
2023/04/01 19:56:14;;;;;;;0.60;0.40;;;;;;;;;;5089964;28;20448;-64
2023/04/01 19:58:44;;;;;;;0.60;0.40;;;;;;;;;;5089752;28;20529;-64
2023/04/01 20:01:15;;;;;;;0.60;0.40;;;;;;;;;;5090051;28;20451;-63
2023/04/01 20:03:45;;;;;;;0.60;0.40;;;;;;;;;;5088097;28;20468;-63
2023/04/01 20:06:18;;;;;;;0.60;0.40;;;;;;;;;;5089645;28;20447;-62
2023/04/01 20:08:49;;;;;;;0.60;0.40;;;;;;;;;;5089184;28;20440;-63
2023/04/01 20:11:23;;;;;;;1.00;0.80;;;;;;;;;;5089716;28;20882;-63
2023/04/01 20:13:55;;;;;;;0.70;0.50;;;;;;;;;;5088027;28;20464;-63
2023/04/01 20:16:22;;;;;;;0.60;0.40;;;;;;;;;;5085449;28;20460;-63
2023/04/01 20:18:53;;;;;;;0.60;0.40;;;;;;;;;;5089070;28;20448;-63
2023/04/01 20:21:28;;;;;;;0.60;0.40;;;;;;;;;;5089123;28;20498;-63
2023/04/01 20:23:58;;;;;;;0.60;0.40;;;;;;;;;;5088708;28;20472;-63
2023/04/01 20:26:29;;;;;;;0.70;0.60;;;;;;;;;;5088983;28;20457;-62
2023/04/01 20:29:12;;;;;;;0.60;0.40;;;;;;;;;;5088325;28;21170;-63
2023/04/01 20:31:42;;;;;;;0.60;0.40;;;;;;;;;;5076377;28;20911;-62
2023/04/01 20:34:28;;;;;;;0.60;0.40;;;;;;;;;;5085249;28;20451;-63
2023/04/01 20:37:12;;;;;;;0.60;0.40;;;;;;;;;;5080213;28;20687;-63
2023/04/01 20:39:46;;;;;;;0.60;0.40;;;;;;;;;;5088254;28;20887;-63
2023/04/01 20:42:21;;;;;;;0.60;0.40;;;;;;;;;;5088669;28;20519;-64
2023/04/01 20:44:53;;;;;;;0.60;0.40;;;;;;;;;;5088354;28;20464;-64
2023/04/01 20:47:26;;;;;;;0.60;0.40;;;;;;;;;;5088603;28;20449;-64
2023/04/01 20:49:59;;;;;;;0.60;0.40;;;;;;;;;;5088254;28;20463;-62
2023/04/01 20:52:33;;;;;;;0.80;0.70;;;;;;;;;;5075031;28;20543;-64
2023/04/01 20:55:23;;;;;;;0.60;0.40;;;;;;;;;;5088902;28;20476;-63
2023/04/01 20:57:57;;;;;;;0.60;0.40;;;;;;;;;;5088172;28;20452;-63
2023/04/01 21:00:35;;;;;;;0.60;0.50;;;;;;;;;;5088400;28;20437;-63
2023/04/01 21:03:12;;;;;;;0.60;0.40;;;;;;;;;;5088562;28;20440;-64
2023/04/01 21:06:01;;;;;;;0.60;0.40;;;;;;;;;;5087855;28;20444;-63
2023/04/01 21:08:36;;;;;;;0.60;0.40;;;;;;;;;;5088454;28;20955;-63
2023/04/01 21:11:05;;;;;;;0.60;0.50;;;;;;;;;;5088395;28;20444;-63
2023/04/01 21:13:46;;;;;;;0.60;0.40;;;;;;;;;;5088233;28;20801;-63
2023/04/01 21:16:19;;;;;;;0.60;0.40;;;;;;;;;;5086055;28;20449;-63
2023/04/01 21:18:55;;;;;;;0.60;0.40;;;;;;;;;;5087517;28;20494;-63
2023/04/01 21:21:37;;;;;;;0.60;0.40;;;;;;;;;;5087160;28;21021;-63
2023/04/01 21:24:19;;;;;;;0.60;0.40;;;;;;;;;;5067420;28;20481;-63
2023/04/01 21:26:51;;;;;;;0.60;0.40;;;;;;;;;;5032413;28;21009;-63
2023/04/01 21:29:29;;;;;;;0.60;0.40;;;;;;;;;;5087350;28;20515;-63
2023/04/01 21:32:03;;;;;;;0.77;0.50;;;;;;;;;;5080085;28;20445;-66
2023/04/01 21:34:38;;;;;;;0.60;0.40;;;;;;;;;;5089033;28;20445;-65
2023/04/01 21:37:14;;;;;;;0.60;0.40;;;;;;;;;;5088438;28;20444;-64
2023/04/01 21:39:51;;;;;;;0.60;0.40;;;;;;;;;;5087471;28;20440;-64
2023/04/01 21:42:23;;;;;;;0.60;0.40;;;;;;;;;;5088061;28;20455;-65
2023/04/01 21:44:57;;;;;;;0.60;0.40;;;;;;;;;;5087412;28;20472;-65
2023/04/01 21:47:51;;;;;;;0.60;0.40;;;;;;;;;;5088244;28;20451;-65
2023/04/01 21:50:34;;;;;;;0.60;0.40;;;;;;;;;;5087849;28;20459;-65
2023/04/01 21:53:14;;;;;;;0.60;0.40;;;;;;;;;;5085616;28;20445;-65
2023/04/01 21:55:53;;;;;;;0.70;0.50;;;;;;;;;;5087455;28;20967;-65
2023/04/01 21:58:38;;;;;;;0.60;0.40;;;;;;;;;;5087607;28;20445;-65
2023/04/01 22:01:15;;;;;;;0.60;0.40;;;;;;;;;;5044536;28;20444;-64
2023/04/01 22:03:57;;;;;;;0.60;0.40;;;;;;;;;;5086842;28;20476;-64
2023/04/01 22:06:26;;;;;;;0.60;0.40;;;;;;;;;;5087255;28;20444;-64
2023/04/01 22:09:01;;;;;;;0.60;0.40;;;;;;;;;;5075454;28;20951;-64
2023/04/01 22:11:34;;;;;;;0.60;0.40;;;;;;;;;;5087884;28;20473;-64
2023/04/01 22:14:03;;;;;;;0.87;0.87;;;;;;;;;;5087738;28;20454;-65
2023/04/01 22:16:35;;;;;;;0.60;0.40;;;;;;;;;;5085620;28;20459;-65
2023/04/01 22:19:05;;;;;;;0.60;0.40;;;;;;;;;;5087996;28;20452;-64
2023/04/01 22:21:36;;;;;;;0.60;0.40;;;;;;;;;;5087696;28;20488;-64
2023/04/01 22:24:08;;;;;;;0.60;0.40;;;;;;;;;;5087483;28;20479;-65
2023/04/01 22:26:38;;;;;;;0.60;0.40;;;;;;;;;;5087497;28;20459;-64
2023/04/01 22:29:08;;;;;;;0.60;0.40;;;;;;;;;;5091067;28;20444;-64
2023/04/01 22:31:41;;;;;;;0.60;0.43;;;;;;;;;;5083296;28;20453;-64
2023/04/01 22:34:14;;;;;;;0.60;0.40;;;;;;;;;;5087505;28;20478;-65
2023/04/01 22:36:46;;;;;;;0.60;0.40;;;;;;;;;;5090629;28;20447;-65
2023/04/01 22:39:20;;;;;;;0.60;0.40;;;;;;;;;;5090865;28;20452;-65
2023/04/01 22:41:55;;;;;;;0.60;0.40;;;;;;;;;;5089939;28;20516;-66
2023/04/01 22:44:28;;;;;;;0.60;0.40;;;;;;;;;;5090531;28;20490;-64
2023/04/01 22:46:59;;;;;;;4.00;1.07;;;;;;;;;;5090171;28;20748;-64
2023/04/01 22:49:28;;;;;;;0.60;0.40;;;;;;;;;;5090325;28;20558;-65
2023/04/01 22:51:57;;;;;;;0.60;0.40;;;;;;;;;;5088843;28;20455;-65
2023/04/01 22:54:26;;;;;;;0.70;0.50;;;;;;;;;;5090541;28;20452;-64
2023/04/01 22:56:55;;;;;;;0.60;0.40;;;;;;;;;;5088867;28;20449;-65
2023/04/01 22:59:24;;;;;;;0.60;0.40;;;;;;;;;;5090510;28;20487;-64
2023/04/01 23:01:54;;;;;;;0.60;0.40;;;;;;;;;;5089756;28;20456;-65
2023/04/01 23:04:24;;;;;;;0.70;0.63;;;;;;;;;;5089373;28;20471;-65
2023/04/01 23:06:53;;;;;;;0.60;0.40;;;;;;;;;;5088894;28;20444;-65
2023/04/01 23:09:21;;;;;;;0.60;0.40;;;;;;;;;;5090074;28;20528;-65
2023/04/01 23:11:51;;;;;;;0.60;0.40;;;;;;;;;;5089311;28;20451;-64
2023/04/01 23:14:33;;;;;;;0.60;0.40;;;;;;;;;;5089439;28;20432;-64
2023/04/01 23:17:03;;;;;;;0.60;0.40;;;;;;;;;;5084503;28;20476;-64
2023/04/01 23:19:34;;;;;;;0.60;0.40;;;;;;;;;;5086340;28;20456;-65
2023/04/01 23:22:06;;;;;;;0.60;0.40;;;;;;;;;;5090176;28;20842;-65
2023/04/01 23:24:36;;;;;;;0.60;0.40;;;;;;;;;;5090654;28;20828;-64
2023/04/01 23:27:07;;;;;;;0.60;0.40;;;;;;;;;;5090112;28;20452;-65
2023/04/01 23:29:38;;;;;;;0.60;0.40;;;;;;;;;;5090183;28;20457;-65
2023/04/01 23:32:05;;;;;;;0.60;0.40;;;;;;;;;;5090039;28;20803;-65
2023/04/01 23:34:35;;;;;;;0.60;0.40;;;;;;;;;;5090105;28;20943;-65
2023/04/01 23:37:04;;;;;;;0.60;0.40;;;;;;;;;;5089821;28;20889;-64
2023/04/01 23:39:33;;;;;;;0.60;0.40;;;;;;;;;;5076713;28;20449;-65
2023/04/01 23:42:02;;;;;;;0.60;0.40;;;;;;;;;;5088928;28;21481;-64
2023/04/01 23:44:29;;;;;;;0.60;0.40;;;;;;;;;;5089164;28;20840;-65
2023/04/01 23:46:57;;;;;;;0.60;0.40;;;;;;;;;;5089091;28;20610;-64
2023/04/01 23:49:26;;;;;;;0.60;0.40;;;;;;;;;;5088804;28;20452;-65
2023/04/01 23:51:57;;;;;;;0.60;0.40;;;;;;;;;;5088140;28;20464;-65
2023/04/01 23:54:35;;;;;;;0.60;0.40;;;;;;;;;;5089842;28;20463;-65
2023/04/01 23:57:06;;;;;;;0.60;0.40;;;;;;;;;;5089087;28;20451;-64
2023/04/01 23:59:36;;;;;;;0.60;0.40;;;;;;;;;;5089096;28;20478;-64
